Time;durP1;ratioP1;P1;durP2;ratioP2;P2;SDS_P1;SDS_P2;PMS_P1;PMS_P2;Temp;Humidity;BMP_temperature;BMP_pressure;BME280_temperature;BME280_humidity;BME280_pressure;Samples;Min_cycle;Max_cycle;Signal;HPM_P1;HPM_P2
2023/05/01 00:00:47;;;;;;;3.08;2.75;;;;;;;13.53;100.00;98095.53;5034121;28;20205;-62
2023/05/01 00:03:13;;;;;;;2.88;2.40;;;;;;;13.91;95.76;98142.44;5034170;28;20171;-62
2023/05/01 00:05:39;;;;;;;2.80;2.60;;;;;;;14.13;93.72;98165.66;5034101;28;20620;-62
2023/05/01 00:08:04;;;;;;;2.92;2.40;;;;;;;13.96;90.43;98117.69;5033983;28;20261;-62
2023/05/01 00:10:30;;;;;;;2.50;2.40;;;;;;;13.82;87.33;98086.03;5034028;28;20178;-62
2023/05/01 00:12:55;;;;;;;2.70;2.50;;;;;;;14.10;87.29;98126.88;5033888;28;20653;-62
2023/05/01 00:15:20;;;;;;;2.35;2.25;;;;;;;13.86;85.87;98079.59;5033915;28;20210;-62
2023/05/01 00:17:46;;;;;;;3.65;2.05;;;;;;;14.01;85.99;98099.09;5033857;28;20591;-62
2023/05/01 00:20:12;;;;;;;4.13;2.67;;;;;;;14.32;86.46;98156.16;5033731;28;20206;-62
2023/05/01 00:22:38;;;;;;;9.30;3.45;;;;;;;14.14;90.05;98129.09;5033760;28;20663;-62
2023/05/01 00:25:03;;;;;;;4.55;3.33;;;;;;;14.25;94.46;98141.19;5033770;28;20186;-63
2023/05/01 00:27:29;;;;;;;6.10;3.67;;;;;;;14.26;97.21;98142.84;5033711;28;20174;-62
2023/05/01 00:29:54;;;;;;;3.40;3.17;;;;;;;14.55;96.31;98164.53;5033681;28;20720;-62
2023/05/01 00:32:20;;;;;;;5.40;3.03;;;;;;;14.18;93.48;98095.84;5033629;28;20183;-62
2023/05/01 00:34:47;;;;;;;5.18;3.10;;;;;;;13.86;97.75;98083.03;5033561;28;20625;-63
2023/05/01 00:37:12;;;;;;;2.67;2.47;;;;;;;14.28;91.76;98159.16;5033527;28;20166;-62
2023/05/01 00:39:38;;;;;;;2.28;2.17;;;;;;;14.12;84.42;98153.63;5033405;28;20212;-62
2023/05/01 00:42:03;;;;;;;2.03;1.85;;;;;;;13.48;82.67;98074.28;5033420;28;20672;-62
2023/05/01 00:44:28;;;;;;;2.08;1.88;;;;;;;13.61;83.25;98106.06;5033717;28;20174;-62
2023/05/01 00:46:55;;;;;;;1.85;1.75;;;;;;;13.69;81.48;98130.47;5033561;28;20313;-62
2023/05/01 00:49:20;;;;;;;3.28;2.08;;;;;;;13.19;81.69;98058.56;5033556;28;20227;-62
2023/05/01 00:51:52;;;;;;;1.92;1.83;;;;;;;13.23;82.01;98079.91;5033473;28;20166;-62
2023/05/01 00:54:18;;;;;;;1.90;1.80;;;;;;;13.47;82.75;98145.44;5033121;28;20192;-62
2023/05/01 00:56:45;;;;;;;2.10;2.00;;;;;;;12.95;82.71;98054.59;5033118;28;20171;-62
2023/05/01 00:59:11;;;;;;;2.00;1.80;;;;;;;13.03;82.40;98058.22;5032673;28;20325;-61
2023/05/01 01:01:37;;;;;;;2.70;2.10;;;;;;;13.55;81.34;98122.19;5033264;28;20684;-61
2023/05/01 01:04:02;;;;;;;2.65;2.00;;;;;;;13.78;80.43;98121.91;5032986;28;20178;-61
2023/05/01 01:06:38;;;;;;;1.73;1.63;;;;;;;13.54;77.98;98045.16;5033182;28;20175;-61
2023/05/01 01:09:12;;;;;;;2.15;1.98;;;;;;;14.23;79.50;98132.72;5032924;28;20232;-61
2023/05/01 01:11:51;;;;;;;2.58;2.00;;;;;;;13.98;77.91;98075.94;5032909;28;20174;-61
2023/05/01 01:14:23;;;;;;;1.80;1.70;;;;;;;14.17;78.87;98094.19;5032830;28;20178;-61
2023/05/01 01:16:58;;;;;;;3.50;1.80;;;;;;;14.14;78.63;98089.25;5032861;28;20233;-61
2023/05/01 01:19:40;;;;;;;1.85;1.63;;;;;;;14.55;78.17;98138.50;5032614;28;20779;-62
2023/05/01 01:22:12;;;;;;;2.72;2.53;;;;;;;14.11;78.05;98058.31;5032665;28;20174;-62
2023/05/01 01:25:21;;;;;;;2.35;2.15;;;;;;;14.04;79.08;98051.97;5032656;28;20175;-62
2023/05/01 01:28:11;;;;;;;1.75;1.65;;;;;;;14.62;77.88;98147.41;5032521;28;20206;-62
2023/05/01 01:31:04;;;;;;;1.90;1.80;;;;;;;14.74;77.14;98148.91;5032580;28;20265;-62
2023/05/01 01:34:01;;;;;;;3.63;1.67;;;;;;;14.57;75.84;98092.34;5032402;28;20167;-61
2023/05/01 01:37:14;;;;;;;2.85;2.00;;;;;;;14.83;79.64;98151.53;5032533;28;20567;-61
2023/05/01 01:39:47;;;;;;;2.03;1.85;;;;;;;14.32;81.59;98066.84;5029776;28;20213;-62
2023/05/01 01:42:18;;;;;;;3.33;1.65;;;;;;;14.38;82.68;98087.94;5029968;28;20182;-62
2023/05/01 01:44:54;;;;;;;1.85;1.75;;;;;;;14.12;83.84;98065.97;5029908;28;20274;-61
2023/05/01 01:47:27;;;;;;;2.15;1.92;;;;;;;14.22;85.14;98108.47;5029842;28;20178;-61
2023/05/01 01:49:55;;;;;;;2.08;1.98;;;;;;;14.09;87.71;98130.44;5029866;28;20279;-62
2023/05/01 01:52:24;;;;;;;2.90;2.05;;;;;;;14.16;89.13;98166.22;5029745;28;20677;-61
2023/05/01 01:55:05;;;;;;;2.38;2.17;;;;;;;13.70;90.64;98103.50;5029746;28;20190;-62
2023/05/01 01:57:31;;;;;;;2.22;2.05;;;;;;;13.42;94.90;98085.22;5029426;28;20202;-62
2023/05/01 01:59:57;;;;;;;2.17;1.98;;;;;;;13.65;95.76;98152.47;5029531;28;20240;-62
2023/05/01 02:02:25;;;;;;;3.30;2.42;;;;;;;13.51;98.61;98157.19;5029626;28;20665;-62
2023/05/01 02:04:55;;;;;;;2.20;2.10;;;;;;;13.46;97.33;98149.78;5029607;28;20179;-61
2023/05/01 02:07:21;;;;;;;2.53;2.33;;;;;;;13.11;100.00;98143.28;5029148;28;20269;-62
2023/05/01 02:09:49;;;;;;;3.22;2.38;;;;;;;12.73;100.00;98098.84;5029497;28;20724;-62
2023/05/01 02:12:17;;;;;;;2.40;2.20;;;;;;;12.75;100.00;98122.91;5029525;28;20182;-62
2023/05/01 02:14:44;;;;;;;2.17;2.03;;;;;;;12.87;100.00;98155.66;5029570;28;20218;-62
2023/05/01 02:17:10;;;;;;;2.38;2.17;;;;;;;12.37;100.00;98092.28;5031477;28;20265;-62
2023/05/01 02:19:40;;;;;;;2.03;1.92;;;;;;;12.60;100.00;98166.50;5031782;28;20202;-62
2023/05/01 02:22:06;;;;;;;3.38;2.70;;;;;;;12.00;100.00;98095.34;5032112;28;20178;-62
2023/05/01 02:24:34;;;;;;;3.10;2.80;;;;;;;12.23;100.00;98136.66;5031893;28;20178;-62
2023/05/01 02:27:06;;;;;;;3.30;3.00;;;;;;;12.49;100.00;98156.16;5031837;28;20210;-62
2023/05/01 02:29:32;;;;;;;4.53;2.65;;;;;;;12.63;100.00;98162.84;5031891;28;20605;-62
2023/05/01 02:31:59;;;;;;;5.07;3.40;;;;;;;12.76;100.00;98163.50;5031748;28;20186;-62
2023/05/01 02:34:24;;;;;;;3.67;3.22;;;;;;;12.62;100.00;98156.00;5031777;28;20178;-61
2023/05/01 02:36:49;;;;;;;3.50;3.20;;;;;;;12.58;100.00;98123.44;5031871;28;20179;-61
2023/05/01 02:39:15;;;;;;;5.20;3.25;;;;;;;12.33;100.00;98113.41;5031732;28;20194;-62
2023/05/01 02:41:41;;;;;;;3.53;2.97;;;;;;;12.38;100.00;98158.78;5031741;28;20633;-61
2023/05/01 02:44:10;;;;;;;3.03;2.15;;;;;;;12.11;99.16;98105.69;5031672;28;20262;-62
2023/05/01 02:46:36;;;;;;;3.00;2.60;;;;;;;12.28;100.00;98136.28;5031699;28;20200;-62
2023/05/01 02:49:03;;;;;;;2.53;2.33;;;;;;;12.40;98.18;98156.06;5031585;28;20182;-62
2023/05/01 02:51:30;;;;;;;3.65;2.50;;;;;;;12.00;100.00;98122.09;5031634;28;20650;-62
2023/05/01 02:53:56;;;;;;;3.33;2.67;;;;;;;12.20;100.00;98190.56;5031625;28;20183;-62
2023/05/01 02:56:25;;;;;;;3.50;2.80;;;;;;;12.15;100.00;98177.97;5031571;28;20277;-62
2023/05/01 02:58:52;;;;;;;4.80;2.88;;;;;;;11.94;100.00;98129.53;5031469;28;20230;-62
2023/05/01 03:01:17;;;;;;;3.63;3.08;;;;;;;11.63;100.00;98091.41;5031474;28;20170;-62
2023/05/01 03:03:43;;;;;;;3.55;3.25;;;;;;;11.78;100.00;98134.28;5031545;28;20603;-62
2023/05/01 03:06:08;;;;;;;4.53;3.38;;;;;;;11.63;100.00;98127.69;5031475;28;20166;-62
2023/05/01 03:08:33;;;;;;;4.75;4.05;;;;;;;11.79;100.00;98143.69;5031514;28;20185;-62
2023/05/01 03:11:03;;;;;;;5.78;3.90;;;;;;;11.93;100.00;98144.28;5068976;28;20185;-62
2023/05/01 03:13:28;;;;;;;4.63;3.30;;;;;;;12.19;100.00;98187.13;5069001;28;20193;-62
2023/05/01 03:15:54;;;;;;;3.90;3.60;;;;;;;11.91;100.00;98133.19;5069124;28;20271;-62
2023/05/01 03:18:19;;;;;;;4.38;3.92;;;;;;;12.17;100.00;98183.00;5069405;28;20272;-62
2023/05/01 03:20:55;;;;;;;2.30;2.15;;;;;;;12.09;100.00;98160.25;5072432;28;20212;-62
2023/05/01 03:23:22;;;;;;;2.35;2.15;;;;;;;11.82;97.69;98097.63;5072512;28;20192;-62
2023/05/01 03:25:48;;;;;;;2.15;2.00;;;;;;;12.39;97.91;98190.75;5072457;28;20694;-62
2023/05/01 03:28:13;;;;;;;2.60;2.40;;;;;;;11.87;100.00;98112.81;5072320;28;20189;-62
2023/05/01 03:30:39;;;;;;;2.70;2.50;;;;;;;12.39;100.00;98180.38;5072380;28;20193;-62
2023/05/01 03:33:04;;;;;;;2.80;2.60;;;;;;;12.61;100.00;98201.09;5072299;28;20188;-62
2023/05/01 03:35:30;;;;;;;2.72;2.55;;;;;;;12.17;93.88;98118.16;5072244;28;20181;-62
2023/05/01 03:37:55;;;;;;;2.75;2.53;;;;;;;12.31;91.24;98142.06;5072196;28;20629;-62
2023/05/01 03:40:20;;;;;;;1.60;1.50;;;;;;;12.33;91.66;98170.47;5071981;28;20260;-62
2023/05/01 03:42:46;;;;;;;3.15;2.30;;;;;;;11.88;97.51;98117.88;5071990;28;20189;-62
2023/05/01 03:45:11;;;;;;;2.70;2.30;;;;;;;12.43;96.81;98202.53;5071990;28;20173;-62
2023/05/01 03:47:37;;;;;;;2.60;2.40;;;;;;;11.97;99.82;98122.31;5068472;28;20623;-62
2023/05/01 03:50:03;;;;;;;2.40;2.20;;;;;;;12.45;94.25;98206.66;5052012;28;20209;-61
2023/05/01 03:52:28;;;;;;;2.92;2.30;;;;;;;12.03;94.11;98141.78;5051810;28;20269;-62
2023/05/01 03:54:53;;;;;;;2.92;2.38;;;;;;;12.22;94.72;98167.91;5051824;28;20524;-62
2023/05/01 03:57:25;;;;;;;2.30;2.15;;;;;;;12.16;92.52;98147.66;5051636;28;20192;-62
2023/05/01 03:59:51;;;;;;;3.85;2.70;;;;;;;12.39;93.49;98172.59;5051769;28;20300;-62
2023/05/01 04:02:17;;;;;;;2.72;2.53;;;;;;;12.39;92.93;98160.44;5051689;28;20185;-62
2023/05/01 04:04:43;;;;;;;2.45;2.35;;;;;;;12.65;92.21;98172.16;5052166;28;20240;-62
2023/05/01 04:07:08;;;;;;;2.10;2.00;;;;;;;12.65;88.51;98161.78;5051652;28;20270;-62
2023/05/01 04:09:34;;;;;;;3.13;2.25;;;;;;;12.68;87.04;98164.13;5037800;28;20281;-62
2023/05/01 04:12:01;;;;;;;1.95;1.85;;;;;;;12.85;86.53;98194.75;5034107;28;20179;-62
2023/05/01 04:14:28;;;;;;;2.17;1.98;;;;;;;12.61;85.61;98149.19;5034033;28;20170;-62
2023/05/01 04:16:53;;;;;;;2.05;1.95;;;;;;;12.80;84.86;98185.66;5033748;28;20591;-62
2023/05/01 04:19:18;;;;;;;1.90;1.80;;;;;;;12.64;85.14;98143.72;5033836;28;20199;-62
2023/05/01 04:21:44;;;;;;;1.73;1.63;;;;;;;12.92;84.39;98193.31;5033615;28;20648;-62
2023/05/01 04:24:10;;;;;;;3.75;1.95;;;;;;;12.76;83.63;98163.50;5033499;28;20555;-62
2023/05/01 04:26:35;;;;;;;2.72;1.77;;;;;;;13.25;83.33;98233.91;5033764;28;20171;-62
2023/05/01 04:29:01;;;;;;;1.90;1.80;;;;;;;12.89;82.51;98158.97;5033405;28;20174;-62
2023/05/01 04:31:26;;;;;;;3.42;1.83;;;;;;;13.29;82.01;98214.53;5033665;28;20202;-62
2023/05/01 04:33:52;;;;;;;2.40;2.17;;;;;;;13.55;82.46;98254.78;5033629;28;20257;-62
2023/05/01 04:36:17;;;;;;;2.90;1.83;;;;;;;13.19;82.03;98190.25;5033509;28;20244;-62
2023/05/01 04:38:43;;;;;;;1.83;1.73;;;;;;;13.68;82.21;98264.03;5033517;28;20201;-62
2023/05/01 04:41:09;;;;;;;3.03;2.50;;;;;;;13.75;85.77;98264.31;5033353;28;20672;-62
2023/05/01 04:43:34;;;;;;;3.05;1.92;;;;;;;13.63;83.10;98234.97;5033470;28;20198;-62
2023/05/01 04:45:59;;;;;;;2.40;2.20;;;;;;;13.80;81.59;98254.38;5033429;28;20174;-62
2023/05/01 04:48:25;;;;;;;2.50;2.30;;;;;;;13.46;80.11;98174.94;5033015;28;20320;-62
2023/05/01 04:50:50;;;;;;;2.20;2.03;;;;;;;13.87;80.71;98226.88;5033301;28;20231;-62
2023/05/01 04:53:16;;;;;;;3.85;2.08;;;;;;;14.06;79.17;98232.19;5033274;28;20175;-62
2023/05/01 04:55:41;;;;;;;2.30;1.80;;;;;;;14.22;80.03;98269.81;5033221;28;20210;-62
2023/05/01 04:58:07;;;;;;;2.30;2.20;;;;;;;13.83;81.03;98207.31;5033115;28;20275;-62
2023/05/01 05:00:32;;;;;;;2.20;2.00;;;;;;;14.00;78.39;98249.13;5033071;28;20681;-62
2023/05/01 05:02:58;;;;;;;2.50;2.30;;;;;;;13.95;79.37;98227.06;5070401;28;20181;-62
2023/05/01 05:05:23;;;;;;;2.38;2.17;;;;;;;14.40;79.02;98288.25;5070513;28;20191;-62
2023/05/01 05:07:49;;;;;;;3.97;2.40;;;;;;;14.24;79.79;98251.47;5070453;28;20188;-62
2023/05/01 05:10:14;;;;;;;3.13;2.17;;;;;;;14.31;77.21;98253.41;5070282;28;20610;-62
2023/05/01 05:12:39;;;;;;;3.35;2.58;;;;;;;14.66;76.44;98297.22;5070290;28;20185;-62
2023/05/01 05:15:06;;;;;;;1.80;1.70;;;;;;;14.45;76.44;98263.44;5070264;28;20276;-62
2023/05/01 05:17:31;;;;;;;1.85;1.75;;;;;;;14.56;75.12;98267.72;5069693;28;20186;-62
2023/05/01 05:19:56;;;;;;;1.73;1.63;;;;;;;14.48;74.51;98249.34;5069835;28;20267;-62
2023/05/01 05:22:22;;;;;;;1.70;1.60;;;;;;;14.78;74.55;98293.56;5069981;28;20588;-62
2023/05/01 05:24:53;;;;;;;2.80;2.60;;;;;;;14.42;74.11;98224.69;5070361;28;20566;-62
2023/05/01 05:27:19;;;;;;;3.83;1.90;;;;;;;14.50;73.41;98232.63;5069442;28;20192;-62
2023/05/01 05:29:44;;;;;;;2.17;1.98;;;;;;;14.83;73.84;98292.22;5069718;28;20189;-62
2023/05/01 05:32:10;;;;;;;3.13;2.58;;;;;;;14.98;73.55;98321.31;5069677;28;20264;-62
2023/05/01 05:34:35;;;;;;;2.40;2.10;;;;;;;14.68;73.53;98256.22;5056076;28;20197;-62
2023/05/01 05:37:01;;;;;;;1.88;1.77;;;;;;;14.68;73.38;98224.97;5051966;28;20174;-62
2023/05/01 05:39:26;;;;;;;1.98;1.88;;;;;;;15.34;71.85;98313.69;5051976;28;20300;-62
2023/05/01 05:41:52;;;;;;;1.60;1.50;;;;;;;15.30;71.54;98295.81;5050963;28;20260;-62
2023/05/01 05:44:18;;;;;;;2.03;1.70;;;;;;;15.48;71.71;98299.41;5051362;28;20238;-62
2023/05/01 05:46:44;;;;;;;1.73;1.63;;;;;;;15.21;70.91;98239.31;5052391;28;20644;-62
2023/05/01 05:49:10;;;;;;;1.80;1.70;;;;;;;15.63;70.65;98304.06;5050103;28;20257;-62
2023/05/01 05:51:35;;;;;;;1.73;1.63;;;;;;;15.37;69.52;98260.44;5051924;28;20625;-62
2023/05/01 05:54:01;;;;;;;1.90;1.80;;;;;;;15.60;69.38;98288.72;5052035;28;20715;-62
2023/05/01 05:56:26;;;;;;;4.55;1.92;;;;;;;15.61;68.90;98269.47;5065214;28;20263;-62
2023/05/01 05:58:52;;;;;;;1.63;1.50;;;;;;;15.66;68.79;98274.28;5047266;28;20205;-62
2023/05/01 06:01:18;;;;;;;2.00;1.90;;;;;;;15.91;69.04;98299.78;5046989;28;20737;-62
2023/05/01 06:03:43;;;;;;;1.80;1.70;;;;;;;15.55;68.13;98237.91;5049186;28;20189;-64
2023/05/01 06:06:09;;;;;;;1.73;1.63;;;;;;;15.58;68.71;98242.84;5049672;28;20238;-62
2023/05/01 06:08:36;;;;;;;1.88;1.65;;;;;;;15.69;67.88;98250.53;5049436;28;20272;-62
2023/05/01 06:11:01;;;;;;;6.63;2.05;;;;;;;15.91;67.68;98276.31;5049204;28;20187;-62
2023/05/01 06:13:27;;;;;;;2.40;2.08;;;;;;;16.23;67.33;98328.94;5049371;28;20290;-62
2023/05/01 06:15:52;;;;;;;2.50;1.90;;;;;;;16.19;66.78;98325.81;5049264;28;20243;-62
2023/05/01 06:18:18;;;;;;;2.22;2.05;;;;;;;15.90;67.09;98258.97;5049321;28;20205;-62
2023/05/01 06:20:43;;;;;;;2.45;1.98;;;;;;;16.34;66.71;98318.34;5049274;28;20213;-62
2023/05/01 06:23:09;;;;;;;2.08;1.98;;;;;;;16.21;66.62;98295.16;5049179;28;20217;-62
2023/05/01 06:25:34;;;;;;;3.47;2.15;;;;;;;16.62;66.71;98340.94;5049188;28;20566;-62
2023/05/01 06:28:00;;;;;;;1.55;1.52;;;;;;;16.45;65.48;98286.84;5034806;28;20288;-62
2023/05/01 06:30:25;;;;;;;1.67;1.58;;;;;;;16.88;64.95;98336.69;5029283;28;20197;-62
2023/05/01 06:32:51;;;;;;;2.03;1.90;;;;;;;17.04;65.08;98336.88;5029355;28;20186;-62
2023/05/01 06:35:16;;;;;;;3.20;1.88;;;;;;;17.11;64.99;98337.91;5030948;28;20182;-62
2023/05/01 06:37:41;;;;;;;2.75;1.60;;;;;;;16.79;63.55;98264.41;5051599;28;20731;-62
2023/05/01 06:40:08;;;;;;;2.00;1.90;;;;;;;17.37;63.01;98344.09;5051547;28;20201;-62
2023/05/01 06:42:35;;;;;;;2.10;2.00;;;;;;;17.35;62.30;98335.53;5051527;28;20174;-62
2023/05/01 06:45:00;;;;;;;2.60;2.40;;;;;;;17.29;62.48;98344.81;5051565;28;20184;-62
2023/05/01 06:47:26;;;;;;;4.05;1.98;;;;;;;17.51;63.06;98365.34;5051511;28;20196;-62
2023/05/01 06:49:51;;;;;;;2.30;2.08;;;;;;;17.34;63.67;98326.06;5051497;28;20176;-62
2023/05/01 06:52:17;;;;;;;4.28;1.98;;;;;;;17.69;63.15;98373.19;5051914;28;20548;-62
2023/05/01 06:54:42;;;;;;;3.03;2.50;;;;;;;17.32;62.50;98294.81;5055357;28;20176;-62
2023/05/01 06:57:07;;;;;;;3.40;1.88;;;;;;;17.79;61.34;98366.88;5055184;28;20546;-62
2023/05/01 06:59:33;;;;;;;2.10;1.90;;;;;;;17.67;61.64;98330.66;5055261;28;20250;-62
2023/05/01 07:01:58;;;;;;;2.70;2.15;;;;;;;17.71;62.44;98311.03;5055224;28;20280;-62
2023/05/01 07:04:23;;;;;;;5.60;2.20;;;;;;;18.00;62.41;98340.38;5055216;28;20185;-62
2023/05/01 07:06:49;;;;;;;3.28;2.60;;;;;;;18.15;63.07;98347.56;5054813;28;20260;-62
2023/05/01 07:09:14;;;;;;;9.43;2.67;;;;;;;18.46;63.47;98392.47;5055066;28;20169;-62
2023/05/01 07:11:41;;;;;;;6.55;2.85;;;;;;;18.34;62.93;98357.84;5054987;28;20260;-62
2023/05/01 07:14:07;;;;;;;8.25;2.70;;;;;;;18.56;63.30;98377.47;5054989;28;20179;-62
2023/05/01 07:16:32;;;;;;;6.80;3.65;;;;;;;18.45;64.20;98348.91;5055024;28;20252;-62
2023/05/01 07:18:58;;;;;;;7.85;3.47;;;;;;;18.85;64.94;98409.41;5054852;28;20173;-63
2023/05/01 07:21:23;;;;;;;7.15;3.78;;;;;;;18.73;65.04;98377.41;5054816;28;20255;-62
2023/05/01 07:23:49;;;;;;;6.03;3.92;;;;;;;19.02;65.58;98422.44;5054879;28;20177;-62
2023/05/01 07:26:14;;;;;;;7.45;4.15;;;;;;;18.93;65.89;98383.22;5054788;28;20260;-62
2023/05/01 07:28:40;;;;;;;5.28;3.88;;;;;;;19.08;65.61;98421.00;5054755;28;20205;-63
2023/05/01 07:31:08;;;;;;;9.13;4.43;;;;;;;19.00;65.96;98397.34;5072126;28;20755;-63
2023/05/01 07:33:34;;;;;;;7.47;4.18;;;;;;;19.00;65.63;98399.97;5072283;28;20206;-62
2023/05/01 07:35:59;;;;;;;10.38;3.92;;;;;;;18.97;66.55;98395.03;5072138;28;20188;-62
2023/05/01 07:38:25;;;;;;;4.63;4.07;;;;;;;18.98;66.60;98405.38;5072252;28;20249;-62
2023/05/01 07:40:52;;;;;;;5.57;4.10;;;;;;;18.73;66.88;98373.97;5072024;28;20311;-62
2023/05/01 07:43:17;;;;;;;8.20;4.13;;;;;;;19.03;66.91;98425.88;5072043;28;20192;-62
2023/05/01 07:45:54;;;;;;;4.85;4.15;;;;;;;18.68;67.52;98352.63;5071976;28;20703;-62
2023/05/01 07:48:20;;;;;;;6.75;4.47;;;;;;;19.09;66.66;98430.50;5071951;28;20187;-62
2023/05/01 07:50:45;;;;;;;6.75;3.90;;;;;;;18.62;65.88;98353.25;5071922;28;20185;-62
2023/05/01 07:53:11;;;;;;;5.82;3.95;;;;;;;18.91;65.19;98395.66;5071959;28;20690;-63
2023/05/01 07:55:37;;;;;;;8.15;4.00;;;;;;;19.02;65.36;98400.63;5072076;28;20253;-63
2023/05/01 07:58:02;;;;;;;6.90;3.83;;;;;;;19.22;64.66;98428.28;5071719;28;20188;-62
2023/05/01 08:00:28;;;;;;;8.07;4.28;;;;;;;19.09;65.16;98397.22;5071729;28;20247;-62
2023/05/01 08:02:53;;;;;;;5.82;4.13;;;;;;;19.26;64.20;98417.34;5071737;28;20243;-62
2023/05/01 08:05:19;;;;;;;6.00;4.25;;;;;;;19.00;64.31;98360.66;5071038;28;20576;-62
2023/05/01 08:07:44;;;;;;;5.63;4.30;;;;;;;19.46;64.37;98420.50;5068314;28;20181;-62
2023/05/01 08:10:10;;;;;;;4.63;4.07;;;;;;;19.40;63.79;98413.28;5054242;28;20238;-62
2023/05/01 08:12:35;;;;;;;6.00;4.55;;;;;;;19.64;62.62;98434.34;5053647;28;20643;-62
2023/05/01 08:15:00;;;;;;;7.10;4.80;;;;;;;19.29;63.06;98366.34;5053863;28;20644;-62
2023/05/01 08:17:26;;;;;;;4.53;4.13;;;;;;;19.77;62.44;98437.31;5053794;28;20172;-62
2023/05/01 08:19:55;;;;;;;8.23;5.25;;;;;;;19.61;64.06;98403.13;5053874;28;20205;-62
2023/05/01 08:22:20;;;;;;;6.53;5.22;;;;;;;19.90;63.05;98432.38;5053726;28;20169;-62
2023/05/01 08:24:46;;;;;;;6.22;4.75;;;;;;;19.93;62.46;98435.50;5053704;28;20192;-62
2023/05/01 08:27:11;;;;;;;4.57;3.65;;;;;;;19.77;60.46;98401.34;5053664;28;20268;-62
2023/05/01 08:29:37;;;;;;;5.72;3.65;;;;;;;19.88;59.38;98418.63;5053629;28;20228;-62
2023/05/01 08:32:02;;;;;;;5.63;4.05;;;;;;;19.95;58.42;98417.81;5053561;28;20183;-62
2023/05/01 08:34:28;;;;;;;6.65;4.65;;;;;;;20.04;58.58;98416.00;5053269;28;20173;-62
2023/05/01 08:36:53;;;;;;;6.85;4.68;;;;;;;20.03;58.86;98406.47;5053475;28;20176;-62
2023/05/01 08:39:18;;;;;;;4.65;4.25;;;;;;;19.95;58.88;98402.03;5053387;28;20646;-62
2023/05/01 08:41:47;;;;;;;5.90;4.18;;;;;;;20.12;58.09;98429.16;5053442;28;20632;-63
2023/05/01 08:44:17;;;;;;;4.43;4.03;;;;;;;19.81;58.19;98372.97;5050862;28;20622;-62
2023/05/01 08:46:49;;;;;;;7.18;3.97;;;;;;;20.03;57.82;98393.31;5050885;28;20189;-62
2023/05/01 08:49:16;;;;;;;3.00;2.80;;;;;;;20.41;55.48;98451.31;5050842;28;20198;-62
2023/05/01 08:51:46;;;;;;;4.75;3.60;;;;;;;20.29;54.95;98441.31;5050587;28;20297;-62
2023/05/01 08:54:13;;;;;;;3.38;3.00;;;;;;;20.25;55.91;98419.81;5050716;28;20189;-62
2023/05/01 08:56:42;;;;;;;6.30;2.90;;;;;;;20.43;56.96;98433.59;5050951;28;20223;-62
2023/05/01 08:59:09;;;;;;;5.05;3.05;;;;;;;20.33;56.91;98413.72;5050525;28;20201;-62
2023/05/01 09:01:36;;;;;;;3.85;3.53;;;;;;;20.52;57.66;98437.84;5050613;28;20188;-62
2023/05/01 09:04:05;;;;;;;4.07;3.15;;;;;;;20.18;57.23;98365.44;5050605;28;20307;-62
2023/05/01 09:06:31;;;;;;;3.60;3.30;;;;;;;20.29;57.79;98394.00;5050531;28;20710;-62
2023/05/01 09:08:57;;;;;;;3.25;3.05;;;;;;;20.50;56.62;98428.47;5050531;28;20323;-62
2023/05/01 09:11:23;;;;;;;4.53;2.85;;;;;;;20.06;55.10;98364.94;5050463;28;20736;-62
2023/05/01 09:13:50;;;;;;;4.90;3.65;;;;;;;20.31;55.00;98402.53;5050388;28;20189;-62
2023/05/01 09:16:16;;;;;;;2.95;2.70;;;;;;;20.33;55.88;98397.97;5049247;28;20194;-62
2023/05/01 09:18:41;;;;;;;2.60;2.45;;;;;;;20.45;55.61;98421.09;5050363;28;20704;-62
2023/05/01 09:21:07;;;;;;;3.20;2.70;;;;;;;20.52;56.79;98421.25;5055944;28;20655;-62
2023/05/01 09:23:34;;;;;;;4.10;3.60;;;;;;;20.44;57.58;98395.78;5054819;28;20185;-62
2023/05/01 09:26:04;;;;;;;2.38;2.17;;;;;;;20.66;54.93;98423.19;5052548;28;20180;-62
2023/05/01 09:28:46;;;;;;;3.10;2.55;;;;;;;20.54;52.14;98393.81;5052538;28;20174;-62
2023/05/01 09:31:21;;;;;;;2.55;2.35;;;;;;;20.92;50.68;98436.97;5052483;28;20209;-62
2023/05/01 09:33:53;;;;;;;2.88;2.60;;;;;;;20.62;50.73;98385.06;5052424;28;20288;-62
2023/05/01 09:36:18;;;;;;;3.28;2.38;;;;;;;20.79;51.04;98424.31;5052426;28;20227;-62
2023/05/01 09:38:44;;;;;;;2.83;2.58;;;;;;;20.32;51.23;98393.66;5052404;28;20181;-62
2023/05/01 09:41:09;;;;;;;2.28;2.13;;;;;;;20.51;52.42;98414.38;5052289;28;20200;-62
2023/05/01 09:43:35;;;;;;;2.40;2.20;;;;;;;20.03;51.36;98351.28;5052304;28;20177;-62
2023/05/01 09:46:05;;;;;;;2.33;2.22;;;;;;;20.59;51.53;98438.00;5052204;28;20173;-62
2023/05/01 09:48:34;;;;;;;3.95;2.17;;;;;;;20.20;48.94;98355.56;5052326;28;20173;-62
2023/05/01 09:51:00;;;;;;;2.33;2.15;;;;;;;20.16;50.33;98354.28;5052127;28;20177;-62
2023/05/01 09:53:39;;;;;;;6.78;1.85;;;;;;;20.80;49.34;98433.84;5051979;28;20591;-62
2023/05/01 09:56:05;;;;;;;3.42;2.22;;;;;;;20.67;48.83;98401.16;5052120;28;20227;-62
2023/05/01 09:58:31;;;;;;;3.50;2.35;;;;;;;20.65;49.94;98382.13;5052125;28;20236;-62
2023/05/01 10:00:57;;;;;;;3.17;2.50;;;;;;;20.84;51.58;98397.50;5051947;28;20232;-62
2023/05/01 10:03:22;;;;;;;2.97;2.10;;;;;;;20.92;50.07;98403.59;5052029;28;20173;-62
2023/05/01 10:05:48;;;;;;;2.35;2.13;;;;;;;21.17;51.27;98412.22;5051923;28;20177;-62
2023/05/01 10:08:14;;;;;;;2.25;2.03;;;;;;;21.36;50.21;98423.16;5051905;28;20180;-62
2023/05/01 10:10:42;;;;;;;2.20;2.00;;;;;;;21.51;48.77;98410.88;5051825;28;20220;-62
2023/05/01 10:13:17;;;;;;;2.05;1.90;;;;;;;21.12;47.17;98354.84;5051877;28;20679;-62
2023/05/01 10:15:45;;;;;;;2.20;2.00;;;;;;;21.08;46.94;98355.34;5069259;28;20558;-62
2023/05/01 10:18:12;;;;;;;2.88;2.08;;;;;;;21.52;47.58;98415.19;5069456;28;20199;-62
2023/05/01 10:20:38;;;;;;;1.98;1.70;;;;;;;21.52;45.88;98428.34;5069286;28;20212;-62
2023/05/01 10:23:04;;;;;;;2.35;2.00;;;;;;;21.70;46.43;98418.38;5069419;28;20191;-62
2023/05/01 10:25:30;;;;;;;2.25;2.00;;;;;;;21.86;46.11;98409.56;5069388;28;20177;-62
2023/05/01 10:27:56;;;;;;;2.05;1.70;;;;;;;21.85;44.12;98407.91;5071153;28;20191;-62
2023/05/01 10:30:22;;;;;;;6.72;2.78;;;;;;;22.09;45.21;98426.19;5073410;28;20192;-62
2023/05/01 10:32:48;;;;;;;3.88;2.50;;;;;;;22.06;45.37;98411.53;5033255;28;20684;-62
2023/05/01 10:35:25;;;;;;;3.72;2.78;;;;;;;22.11;44.32;98408.38;5033407;28;20664;-62
2023/05/01 10:38:01;;;;;;;7.22;4.07;;;;;;;22.30;43.58;98424.50;5033393;28;20619;-62
2023/05/01 10:40:38;;;;;;;3.13;2.38;;;;;;;22.54;44.54;98429.59;5033193;28;20215;-62
2023/05/01 10:43:16;;;;;;;4.32;2.30;;;;;;;22.53;43.44;98398.13;5033302;28;20675;-62
2023/05/01 10:45:46;;;;;;;4.72;2.65;;;;;;;22.64;43.97;98395.88;5033021;28;20194;-62
2023/05/01 10:48:32;;;;;;;5.55;4.90;;;;;;;22.67;44.33;98402.59;5033142;28;20260;-62
2023/05/01 10:51:12;;;;;;;5.32;2.78;;;;;;;23.01;44.36;98435.38;5032860;28;20305;-62
2023/05/01 10:53:39;;;;;;;2.13;1.92;;;;;;;23.25;42.82;98436.94;5033147;28;20255;-62
2023/05/01 10:56:05;;;;;;;6.38;3.40;;;;;;;23.42;42.97;98441.03;5033041;28;20282;-62
2023/05/01 10:58:37;;;;;;;6.00;5.40;;;;;;;23.59;42.60;98447.72;5032857;28;20206;-62
2023/05/01 11:01:31;;;;;;;18.08;13.27;;;;;;;23.81;42.09;98451.00;5032837;28;20225;-62
2023/05/01 11:04:22;;;;;;;5.78;5.10;;;;;;;24.17;41.01;98450.22;5032893;28;20228;-62
2023/05/01 11:07:10;;;;;;;4.65;3.00;;;;;;;24.18;40.80;98465.88;4993287;28;20198;-62
2023/05/01 11:09:35;;;;;;;4.00;3.55;;;;;;;24.02;40.73;98467.94;4997707;28;20202;-62
2023/05/01 11:12:02;;;;;;;2.45;2.28;;;;;;;23.23;41.01;98413.34;5012981;28;20183;-62
2023/05/01 11:14:27;;;;;;;4.90;3.00;;;;;;;23.04;41.27;98376.13;5012948;28;20185;-62
2023/05/01 11:16:53;;;;;;;3.50;3.22;;;;;;;23.61;41.24;98453.63;5012847;28;20178;-62
2023/05/01 11:19:22;;;;;;;9.05;6.55;;;;;;;23.71;41.30;98456.81;5012789;28;20190;-62
2023/05/01 11:21:49;;;;;;;4.00;2.80;;;;;;;23.67;41.27;98433.38;5012811;28;20185;-62
2023/05/01 11:24:17;;;;;;;2.63;2.42;;;;;;;23.31;41.32;98430.94;5012757;28;20222;-62
2023/05/01 11:26:43;;;;;;;2.35;2.20;;;;;;;23.42;41.67;98465.59;5032205;28;20190;-62
2023/05/01 11:29:10;;;;;;;3.42;2.40;;;;;;;23.14;41.07;98432.09;5032440;28;20190;-62
2023/05/01 11:31:36;;;;;;;2.20;2.05;;;;;;;23.29;41.72;98423.19;5032268;28;20248;-62
2023/05/01 11:34:02;;;;;;;2.22;2.03;;;;;;;23.50;41.54;98441.75;5032305;28;20695;-62